createdAt,value
2019-03-06T00:01:10.027Z,9.23
2019-03-06T00:06:17.000Z,9.33
2019-03-06T00:11:22.668Z,9.43
2019-03-06T00:16:28.155Z,9.73
2019-03-06T00:21:33.737Z,10.00
2019-03-06T00:26:39.206Z,9.48
2019-03-06T00:31:44.710Z,9.25
2019-03-06T00:36:50.107Z,8.28
2019-03-06T00:41:55.506Z,8.65
2019-03-06T00:47:01.059Z,9.03
2019-03-06T00:52:06.556Z,8.80
2019-03-06T00:57:11.978Z,7.87
2019-03-06T01:02:17.458Z,9.95
2019-03-06T01:07:22.935Z,8.28
2019-03-06T01:12:28.522Z,8.50
2019-03-06T01:17:33.929Z,9.33
2019-03-06T01:22:39.692Z,8.50
2019-03-06T01:27:45.088Z,8.43
2019-03-06T01:32:55.387Z,7.30
2019-03-06T01:38:18.647Z,7.65
2019-03-06T01:43:34.732Z,8.33
2019-03-06T01:48:40.147Z,7.50
2019-03-06T01:53:45.566Z,7.85
2019-03-06T01:58:50.974Z,7.12
2019-03-06T02:03:56.321Z,7.53
2019-03-06T02:09:01.820Z,7.83
2019-03-06T02:14:09.042Z,7.60
2019-03-06T02:19:14.476Z,7.28
2019-03-06T02:24:19.961Z,6.85
2019-03-06T02:29:25.385Z,7.62
2019-03-06T02:34:30.809Z,6.80
2019-03-06T02:39:36.220Z,6.87
2019-03-06T02:44:41.641Z,6.35
2019-03-06T02:49:47.060Z,7.22
2019-03-06T02:54:52.392Z,7.10
2019-03-06T02:59:59.426Z,6.78
2019-03-06T03:05:08.937Z,6.55
2019-03-06T03:10:14.656Z,7.28
2019-03-06T03:15:20.603Z,6.50
2019-03-06T03:20:25.943Z,6.47
2019-03-06T03:25:31.429Z,6.75
2019-03-06T03:30:36.854Z,6.62
2019-03-06T03:35:43.449Z,7.28
2019-03-06T03:40:48.867Z,7.90
2019-03-06T03:45:55.383Z,7.30
2019-03-06T03:51:00.789Z,6.53
2019-03-06T03:56:06.196Z,6.92
2019-03-06T04:01:11.602Z,7.47
2019-03-06T04:06:16.994Z,6.95
2019-03-06T04:11:23.512Z,8.48
2019-03-06T04:16:29.300Z,7.97
2019-03-06T04:21:34.671Z,7.37
2019-03-06T04:26:40.078Z,7.90
2019-03-06T04:31:45.493Z,8.20
2019-03-06T04:36:50.833Z,8.63
2019-03-06T04:41:57.584Z,9.25
2019-03-06T04:47:03.267Z,9.08
2019-03-06T04:52:08.733Z,9.70
2019-03-06T04:57:14.144Z,8.63
2019-03-06T05:02:19.623Z,9.55
2019-03-06T05:07:25.157Z,11.08
2019-03-06T05:12:31.051Z,10.03
2019-03-06T05:17:50.125Z,9.20
2019-03-06T05:22:55.550Z,9.73
2019-03-06T05:28:00.965Z,9.90
2019-03-06T05:33:14.691Z,11.22
2019-03-06T05:38:25.907Z,11.33
2019-03-06T05:43:31.377Z,11.63
2019-03-06T05:48:36.795Z,14.30
2019-03-06T05:53:42.219Z,15.30
2019-03-06T05:58:47.652Z,11.93
2019-03-06T06:03:53.004Z,16.57
2019-03-06T06:08:58.414Z,16.60
2019-03-06T06:14:04.495Z,12.75
2019-03-06T06:19:11.607Z,12.58
2019-03-06T06:24:18.603Z,11.30
2019-03-06T06:29:23.975Z,11.20
2019-03-06T06:34:29.388Z,12.18
2019-03-06T06:39:34.906Z,13.30
2019-03-06T06:44:40.320Z,12.45
2019-03-06T06:49:45.734Z,14.47
2019-03-06T06:54:59.933Z,13.78
2019-03-06T07:00:20.015Z,15.08
2019-03-06T07:05:39.317Z,16.97
2019-03-06T07:10:52.478Z,14.50
2019-03-06T07:16:02.758Z,21.30
2019-03-06T07:21:21.955Z,14.47
2019-03-06T07:26:45.232Z,15.00
2019-03-06T07:31:55.233Z,13.72
2019-03-06T07:37:02.292Z,13.40
2019-03-06T07:42:12.155Z,13.88
2019-03-06T07:47:21.987Z,13.72
2019-03-06T07:52:35.026Z,11.22
2019-03-06T07:58:17.703Z,13.08
2019-03-06T08:03:23.212Z,12.07
2019-03-06T08:08:28.691Z,13.10
2019-03-06T08:13:35.931Z,12.45
2019-03-06T08:18:45.723Z,12.95
2019-03-06T08:23:52.725Z,11.10
2019-03-06T08:28:58.082Z,12.35
2019-03-06T08:34:03.579Z,11.73
2019-03-06T08:39:17.559Z,12.90
2019-03-06T08:44:22.963Z,9.68
2019-03-06T08:49:32.819Z,10.30
2019-03-06T08:54:54.988Z,10.75
2019-03-06T09:00:04.123Z,10.93
2019-03-06T09:05:25.869Z,10.70
2019-03-06T09:10:42.048Z,10.18
2019-03-06T09:15:52.503Z,12.85
2019-03-06T09:20:59.578Z,9.60
2019-03-06T09:26:12.998Z,11.65
2019-03-06T09:31:20.252Z,10.43
2019-03-06T09:36:39.611Z,9.75
2019-03-06T09:41:49.519Z,9.98
2019-03-06T09:46:59.577Z,9.20
2019-03-06T09:52:06.775Z,7.42
2019-03-06T09:57:16.855Z,7.70
2019-03-06T10:02:23.954Z,7.87
2019-03-06T10:07:31.067Z,8.15
2019-03-06T10:12:56.251Z,7.42
2019-03-06T10:18:05.998Z,6.95
2019-03-06T10:23:11.542Z,8.08
2019-03-06T10:28:16.944Z,7.35
2019-03-06T10:33:22.392Z,7.40
2019-03-06T10:38:27.866Z,6.40
2019-03-06T10:43:33.349Z,8.90
2019-03-06T10:48:38.743Z,7.70
2019-03-06T10:53:44.348Z,6.90
2019-03-06T10:58:50.059Z,5.58
2019-03-06T11:04:06.397Z,5.97
2019-03-06T11:09:11.947Z,7.47
2019-03-06T11:14:17.573Z,6.67
2019-03-06T11:19:23.069Z,7.87
2019-03-06T11:24:29.017Z,7.17
2019-03-06T11:29:34.497Z,7.60
2019-03-06T11:34:40.074Z,8.63
2019-03-06T11:39:45.634Z,9.90
2019-03-06T11:44:51.047Z,10.20
2019-03-06T11:49:56.844Z,14.47
2019-03-06T11:55:06.108Z,8.73
2019-03-06T12:00:36.604Z,8.50
2019-03-06T12:05:42.234Z,8.95
2019-03-06T12:10:47.963Z,9.93
2019-03-06T12:15:53.521Z,8.95
2019-03-06T12:20:59.087Z,9.68
2019-03-06T12:26:04.938Z,17.40
2019-03-06T12:31:10.628Z,7.40
2019-03-06T12:36:16.122Z,7.90
2019-03-06T12:41:21.535Z,8.45
2019-03-06T12:46:26.970Z,7.58
2019-03-06T12:51:32.499Z,8.68
2019-03-06T12:56:37.818Z,7.10
2019-03-06T13:01:43.321Z,6.70
2019-03-06T13:06:48.790Z,8.15
2019-03-06T13:11:54.212Z,8.13
2019-03-06T13:16:59.999Z,8.33
2019-03-06T13:22:11.100Z,8.70
2019-03-06T13:27:12.805Z,9.20
2019-03-06T13:32:19.103Z,7.60
2019-03-06T13:37:24.542Z,7.15
2019-03-06T13:42:29.956Z,6.53
2019-03-06T13:47:38.048Z,7.33
2019-03-06T13:52:43.535Z,7.30
2019-03-06T13:57:50.099Z,6.92
2019-03-06T14:02:55.719Z,6.75
2019-03-06T14:08:01.208Z,7.92
2019-03-06T14:13:06.650Z,7.28
2019-03-06T14:18:13.175Z,8.25
2019-03-06T14:23:18.741Z,7.90
2019-03-06T14:28:24.592Z,8.20
2019-03-06T14:33:30.441Z,8.40
2019-03-06T14:38:36.159Z,7.78
2019-03-06T14:43:41.572Z,8.48
2019-03-06T14:48:47.253Z,7.75
2019-03-06T14:53:52.671Z,8.73
2019-03-06T14:58:58.097Z,8.40
2019-03-06T15:04:03.527Z,7.80
2019-03-06T15:09:17.661Z,7.75
2019-03-06T15:14:23.082Z,9.38
2019-03-06T15:19:28.495Z,6.35
2019-03-06T15:24:40.866Z,7.65
2019-03-06T15:29:41.091Z,7.55
2019-03-06T15:34:46.570Z,7.78
2019-03-06T15:39:53.977Z,7.67
2019-03-06T15:44:59.397Z,7.00
2019-03-06T15:50:08.418Z,7.42
2019-03-06T15:55:16.982Z,7.92
2019-03-06T16:00:45.422Z,7.00
2019-03-06T16:05:43.212Z,7.40
2019-03-06T16:10:48.762Z,8.00
2019-03-06T16:15:54.537Z,11.18
2019-03-06T16:20:59.951Z,12.63
2019-03-06T16:26:06.318Z,10.80
2019-03-06T16:31:12.112Z,11.60
2019-03-06T16:36:17.878Z,10.70
2019-03-06T16:41:24.668Z,10.20
2019-03-06T16:46:31.171Z,11.70
2019-03-06T16:51:36.605Z,11.78
2019-03-06T16:56:42.168Z,13.45
2019-03-06T17:01:47.591Z,12.20
2019-03-06T17:06:54.247Z,13.10
2019-03-06T17:11:59.846Z,13.22
2019-03-06T17:17:05.395Z,12.33
2019-03-06T17:22:11.966Z,13.90
2019-03-06T17:27:17.476Z,14.73
2019-03-06T17:32:23.131Z,14.35
2019-03-06T17:37:28.604Z,14.35
2019-03-06T17:42:35.272Z,15.18
2019-03-06T17:47:40.826Z,14.10
2019-03-06T17:52:46.518Z,15.72
2019-03-06T17:57:52.211Z,16.52
2019-03-06T18:02:58.661Z,16.00
2019-03-06T18:08:04.270Z,14.68
2019-03-06T18:13:09.877Z,14.73
2019-03-06T18:18:15.296Z,13.98
2019-03-06T18:23:20.747Z,14.23
2019-03-06T18:28:26.452Z,14.07
2019-03-06T18:33:32.389Z,15.05
2019-03-06T18:38:39.157Z,13.95
2019-03-06T18:43:44.650Z,13.95
2019-03-06T18:48:50.219Z,14.55
2019-03-06T18:53:55.691Z,13.98
2019-03-06T18:59:01.208Z,12.15
2019-03-06T19:04:06.774Z,13.28
2019-03-06T19:09:12.394Z,11.88
2019-03-06T19:14:18.353Z,12.82
2019-03-06T19:19:24.012Z,12.45
2019-03-06T19:24:29.419Z,12.90
2019-03-06T19:29:34.838Z,12.10
2019-03-06T19:34:40.305Z,12.93
2019-03-06T19:39:47.319Z,12.58
2019-03-06T19:44:52.863Z,11.88
2019-03-06T19:49:58.590Z,12.33
2019-03-06T19:55:05.544Z,12.13
2019-03-06T20:00:11.320Z,14.20
2019-03-06T20:05:17.370Z,12.18
2019-03-06T20:10:23.107Z,12.40
2019-03-06T20:15:29.751Z,12.30
2019-03-06T20:20:36.832Z,12.85
2019-03-06T20:25:43.973Z,13.48
2019-03-06T20:30:49.455Z,13.03
2019-03-06T20:35:55.159Z,12.23
2019-03-06T20:41:00.594Z,14.23
2019-03-06T20:46:06.096Z,13.05
2019-03-06T20:51:11.534Z,13.95
2019-03-06T20:56:17.924Z,12.07
2019-03-06T21:01:23.359Z,14.07
2019-03-06T21:06:33.476Z,12.58
2019-03-06T21:11:36.387Z,13.20
2019-03-06T21:16:42.151Z,13.98
2019-03-06T21:21:47.748Z,14.03
2019-03-06T21:26:53.239Z,13.35
2019-03-06T21:31:58.828Z,13.40
2019-03-06T21:37:04.344Z,12.73
2019-03-06T21:42:09.858Z,10.60
2019-03-06T21:47:15.462Z,13.45
2019-03-06T21:52:23.029Z,11.53
2019-03-06T21:57:28.819Z,11.68
2019-03-06T22:02:34.297Z,13.13
2019-03-06T22:07:39.817Z,12.05
2019-03-06T22:12:45.271Z,14.18
2019-03-06T22:17:50.709Z,13.30
2019-03-06T22:22:56.176Z,14.25
2019-03-06T22:28:01.680Z,13.15
2019-03-06T22:33:07.108Z,15.35
2019-03-06T22:38:12.583Z,13.68
2019-03-06T22:43:18.022Z,13.13
2019-03-06T22:48:23.447Z,8.33
2019-03-06T22:53:28.883Z,14.50
2019-03-06T22:58:34.328Z,13.60
2019-03-06T23:03:39.896Z,10.28
2019-03-06T23:08:45.397Z,13.28
2019-03-06T23:13:51.803Z,14.28
2019-03-06T23:18:57.257Z,12.78
2019-03-06T23:24:02.755Z,11.43
2019-03-06T23:29:08.171Z,11.28
2019-03-06T23:34:13.891Z,7.65
2019-03-06T23:39:19.299Z,9.83
2019-03-06T23:44:24.741Z,9.20
2019-03-06T23:49:30.233Z,12.18
2019-03-06T23:54:35.637Z,12.15
2019-03-06T23:59:41.060Z,8.23
